sensor_id;sensor_type;location;lat;lon;timestamp;pressure;altitude;pressure_sealevel;temperature;humidity
12054;BME280;5638;50.860;4.698;2022-07-23T00:02:06;101427.03;;;19.37;nan
12054;BME280;5638;50.860;4.698;2022-07-23T00:04:33;101425.16;;;19.39;nan
12054;BME280;5638;50.860;4.698;2022-07-23T00:06:59;101407.19;;;19.30;nan
12054;BME280;5638;50.860;4.698;2022-07-23T00:09:25;101426.94;;;19.38;nan
12054;BME280;5638;50.860;4.698;2022-07-23T00:11:50;101420.13;;;19.34;nan
12054;BME280;5638;50.860;4.698;2022-07-23T00:14:16;101414.41;;;19.25;nan
12054;BME280;5638;50.860;4.698;2022-07-23T00:16:42;101418.72;;;19.26;nan
12054;BME280;5638;50.860;4.698;2022-07-23T00:19:08;101421.78;;;19.37;nan
12054;BME280;5638;50.860;4.698;2022-07-23T00:21:34;101415.78;;;19.33;nan
12054;BME280;5638;50.860;4.698;2022-07-23T00:24:00;101417.50;;;19.34;nan
12054;BME280;5638;50.860;4.698;2022-07-23T00:26:25;101425.25;;;19.37;nan
12054;BME280;5638;50.860;4.698;2022-07-23T00:28:51;101411.56;;;19.09;nan
12054;BME280;5638;50.860;4.698;2022-07-23T00:31:17;101422.84;;;19.11;nan
12054;BME280;5638;50.860;4.698;2022-07-23T00:33:43;101427.72;;;19.20;nan
12054;BME280;5638;50.860;4.698;2022-07-23T00:36:09;101421.63;;;19.20;nan
12054;BME280;5638;50.860;4.698;2022-07-23T00:38:34;101418.28;;;19.16;nan
12054;BME280;5638;50.860;4.698;2022-07-23T00:41:00;101408.28;;;19.04;nan
12054;BME280;5638;50.860;4.698;2022-07-23T00:43:26;101405.22;;;18.92;nan
12054;BME280;5638;50.860;4.698;2022-07-23T00:45:52;101397.06;;;18.78;nan
12054;BME280;5638;50.860;4.698;2022-07-23T00:48:18;101414.13;;;18.88;nan
12054;BME280;5638;50.860;4.698;2022-07-23T00:50:44;101409.94;;;18.84;nan
12054;BME280;5638;50.860;4.698;2022-07-23T00:53:10;101422.81;;;18.90;nan
12054;BME280;5638;50.860;4.698;2022-07-23T00:55:37;101404.63;;;18.86;nan
12054;BME280;5638;50.860;4.698;2022-07-23T00:58:05;101415.88;;;18.89;nan
12054;BME280;5638;50.860;4.698;2022-07-23T01:00:31;101407.19;;;18.87;nan
12054;BME280;5638;50.860;4.698;2022-07-23T01:02:57;101405.59;;;18.83;nan
12054;BME280;5638;50.860;4.698;2022-07-23T01:05:23;101405.59;;;18.83;nan
12054;BME280;5638;50.860;4.698;2022-07-23T01:07:51;101409.16;;;18.82;nan
12054;BME280;5638;50.860;4.698;2022-07-23T01:10:18;101395.22;;;18.80;nan
12054;BME280;5638;50.860;4.698;2022-07-23T01:12:57;101393.59;;;18.78;nan
12054;BME280;5638;50.860;4.698;2022-07-23T01:15:23;101383.41;;;18.70;nan
12054;BME280;5638;50.860;4.698;2022-07-23T01:17:50;101388.69;;;18.69;nan
12054;BME280;5638;50.860;4.698;2022-07-23T01:20:16;101394.56;;;18.75;nan
12054;BME280;5638;50.860;4.698;2022-07-23T01:22:43;101393.53;;;18.79;nan
12054;BME280;5638;50.860;4.698;2022-07-23T01:25:09;101394.44;;;18.78;nan
12054;BME280;5638;50.860;4.698;2022-07-23T01:27:35;101394.56;;;18.75;nan
12054;BME280;5638;50.860;4.698;2022-07-23T01:30:03;101365.22;;;18.65;nan
12054;BME280;5638;50.860;4.698;2022-07-23T01:32:29;101383.97;;;18.78;nan
12054;BME280;5638;50.860;4.698;2022-07-23T01:34:55;101383.78;;;18.83;nan
12054;BME280;5638;50.860;4.698;2022-07-23T01:37:21;101379.69;;;18.76;nan
12054;BME280;5638;50.860;4.698;2022-07-23T01:39:46;101381.34;;;18.78;nan
12054;BME280;5638;50.860;4.698;2022-07-23T01:42:12;101390.91;;;18.79;nan
12054;BME280;5638;50.860;4.698;2022-07-23T01:44:38;101390.97;;;18.78;nan
12054;BME280;5638;50.860;4.698;2022-07-23T01:47:04;101389.31;;;18.75;nan
12054;BME280;5638;50.860;4.698;2022-07-23T01:49:30;101373.88;;;18.67;nan
12054;BME280;5638;50.860;4.698;2022-07-23T01:51:55;101379.88;;;18.71;nan
12054;BME280;5638;50.860;4.698;2022-07-23T01:54:33;101373.28;;;18.61;nan
12054;BME280;5638;50.860;4.698;2022-07-23T01:56:59;101379.09;;;18.67;nan
12054;BME280;5638;50.860;4.698;2022-07-23T01:59:26;101379.94;;;18.68;nan
12054;BME280;5638;50.860;4.698;2022-07-23T02:01:53;101380.78;;;18.70;nan
12054;BME280;5638;50.860;4.698;2022-07-23T02:04:21;101392.28;;;18.66;nan
12054;BME280;5638;50.860;4.698;2022-07-23T02:06:47;101383.34;;;18.72;nan
12054;BME280;5638;50.860;4.698;2022-07-23T02:09:13;101381.88;;;18.64;nan
12054;BME280;5638;50.860;4.698;2022-07-23T02:11:39;101381.06;;;18.62;nan
12054;BME280;5638;50.860;4.698;2022-07-23T02:14:06;101376.13;;;18.55;nan
12054;BME280;5638;50.860;4.698;2022-07-23T02:16:32;101382.34;;;18.52;nan
12054;BME280;5638;50.860;4.698;2022-07-23T02:18:58;101376.38;;;18.49;nan
12054;BME280;5638;50.860;4.698;2022-07-23T02:21:24;101379.22;;;18.42;nan
12054;BME280;5638;50.860;4.698;2022-07-23T02:23:49;101378.44;;;18.40;nan
12054;BME280;5638;50.860;4.698;2022-07-23T02:26:15;101387.91;;;18.43;nan
12054;BME280;5638;50.860;4.698;2022-07-23T02:28:41;101392.19;;;18.46;nan
12054;BME280;5638;50.860;4.698;2022-07-23T02:31:07;101384.69;;;18.36;nan
12054;BME280;5638;50.860;4.698;2022-07-23T02:33:33;101390.34;;;18.26;nan
12054;BME280;5638;50.860;4.698;2022-07-23T02:35:59;101381.81;;;18.21;nan
12054;BME280;5638;50.860;4.698;2022-07-23T02:38:26;101393.03;;;18.24;nan
12054;BME280;5638;50.860;4.698;2022-07-23T02:40:52;101396.50;;;18.25;nan
12054;BME280;5638;50.860;4.698;2022-07-23T02:43:18;101392.09;;;18.25;nan
12054;BME280;5638;50.860;4.698;2022-07-23T02:45:44;101369.72;;;18.16;nan
12054;BME280;5638;50.860;4.698;2022-07-23T02:48:09;101393.69;;;18.29;nan
12054;BME280;5638;50.860;4.698;2022-07-23T02:50:38;101382.72;;;18.20;nan
12054;BME280;5638;50.860;4.698;2022-07-23T02:53:04;101386.53;;;18.11;nan
12054;BME280;5638;50.860;4.698;2022-07-23T02:55:30;101393.00;;;18.01;nan
12054;BME280;5638;50.860;4.698;2022-07-23T02:57:57;101396.88;;;17.90;nan
12054;BME280;5638;50.860;4.698;2022-07-23T03:00:23;101393.78;;;17.79;nan
12054;BME280;5638;50.860;4.698;2022-07-23T03:02:48;101398.19;;;17.79;nan
12054;BME280;5638;50.860;4.698;2022-07-23T03:05:14;101413.53;;;17.88;nan
12054;BME280;5638;50.860;4.698;2022-07-23T03:07:40;101410.16;;;17.86;nan
12054;BME280;5638;50.860;4.698;2022-07-23T03:10:06;101407.47;;;17.87;nan
12054;BME280;5638;50.860;4.698;2022-07-23T03:12:32;101418.84;;;17.86;nan
12054;BME280;5638;50.860;4.698;2022-07-23T03:14:58;101420.19;;;17.98;nan
12054;BME280;5638;50.860;4.698;2022-07-23T03:17:24;101420.22;;;17.97;nan
12054;BME280;5638;50.860;4.698;2022-07-23T03:19:49;101429.16;;;17.91;nan
12054;BME280;5638;50.860;4.698;2022-07-23T03:22:15;101430.91;;;17.90;nan
12054;BME280;5638;50.860;4.698;2022-07-23T03:24:41;101433.53;;;17.90;nan
12054;BME280;5638;50.860;4.698;2022-07-23T03:27:36;101433.53;;;17.90;nan
12054;BME280;5638;50.860;4.698;2022-07-23T03:30:02;101428.34;;;17.89;nan
12054;BME280;5638;50.860;4.698;2022-07-23T03:32:28;101433.03;;;17.81;nan
12054;BME280;5638;50.860;4.698;2022-07-23T03:34:54;101432.41;;;17.73;nan
12054;BME280;5638;50.860;4.698;2022-07-23T03:37:21;101431.69;;;17.67;nan
12054;BME280;5638;50.860;4.698;2022-07-23T03:39:47;101430.59;;;17.75;nan
12054;BME280;5638;50.860;4.698;2022-07-23T03:42:12;101426.59;;;17.63;nan
12054;BME280;5638;50.860;4.698;2022-07-23T03:44:38;101405.63;;;17.39;nan
12054;BME280;5638;50.860;4.698;2022-07-23T03:47:05;101436.69;;;17.49;nan
12054;BME280;5638;50.860;4.698;2022-07-23T03:49:32;101439.16;;;17.53;nan
12054;BME280;5638;50.860;4.698;2022-07-23T03:51:59;101436.44;;;17.56;nan
12054;BME280;5638;50.860;4.698;2022-07-23T03:54:25;101439.22;;;17.52;nan
12054;BME280;5638;50.860;4.698;2022-07-23T03:56:50;101442.84;;;17.48;nan
12054;BME280;5638;50.860;4.698;2022-07-23T03:59:16;101442.56;;;17.55;nan
12054;BME280;5638;50.860;4.698;2022-07-23T04:01:42;101448.56;;;17.59;nan
12054;BME280;5638;50.860;4.698;2022-07-23T04:04:08;101452.84;;;17.61;nan
12054;BME280;5638;50.860;4.698;2022-07-23T04:06:35;101448.69;;;17.56;nan
12054;BME280;5638;50.860;4.698;2022-07-23T04:09:02;101440.97;;;17.51;nan
12054;BME280;5638;50.860;4.698;2022-07-23T04:11:28;101461.53;;;17.62;nan
12054;BME280;5638;50.860;4.698;2022-07-23T04:13:53;101459.78;;;17.62;nan
12054;BME280;5638;50.860;4.698;2022-07-23T04:16:19;101449.31;;;17.62;nan
12054;BME280;5638;50.860;4.698;2022-07-23T04:18:45;101455.47;;;17.61;nan
12054;BME280;5638;50.860;4.698;2022-07-23T04:21:11;101460.47;;;17.67;nan
12054;BME280;5638;50.860;4.698;2022-07-23T04:23:36;101453.69;;;17.62;nan
12054;BME280;5638;50.860;4.698;2022-07-23T04:26:02;101453.78;;;17.59;nan
12054;BME280;5638;50.860;4.698;2022-07-23T04:28:28;101452.94;;;17.58;nan
12054;BME280;5638;50.860;4.698;2022-07-23T04:30:57;101450.78;;;17.45;nan
12054;BME280;5638;50.860;4.698;2022-07-23T04:33:23;101460.19;;;17.50;nan
12054;BME280;5638;50.860;4.698;2022-07-23T04:35:48;101445.56;;;17.45;nan
12054;BME280;5638;50.860;4.698;2022-07-23T04:38:14;101450.88;;;17.41;nan
12054;BME280;5638;50.860;4.698;2022-07-23T04:40:40;101453.16;;;17.52;nan
12054;BME280;5638;50.860;4.698;2022-07-23T04:43:06;101465.41;;;17.50;nan
12054;BME280;5638;50.860;4.698;2022-07-23T04:45:31;101463.41;;;17.58;nan
12054;BME280;5638;50.860;4.698;2022-07-23T04:47:57;101454.59;;;17.61;nan
12054;BME280;5638;50.860;4.698;2022-07-23T04:50:23;101464.94;;;17.64;nan
12054;BME280;5638;50.860;4.698;2022-07-23T04:52:49;101468.16;;;17.72;nan
12054;BME280;5638;50.860;4.698;2022-07-23T04:55:16;101468.13;;;17.74;nan
12054;BME280;5638;50.860;4.698;2022-07-23T04:57:42;101468.00;;;17.78;nan
12054;BME280;5638;50.860;4.698;2022-07-23T05:00:08;101471.47;;;17.79;nan
12054;BME280;5638;50.860;4.698;2022-07-23T05:02:34;101466.22;;;17.79;nan
12054;BME280;5638;50.860;4.698;2022-07-23T05:05:00;101469.59;;;17.82;nan
12054;BME280;5638;50.860;4.698;2022-07-23T05:07:26;101463.41;;;17.85;nan
12054;BME280;5638;50.860;4.698;2022-07-23T05:09:52;101470.19;;;17.90;nan
12054;BME280;5638;50.860;4.698;2022-07-23T05:12:17;101465.81;;;17.91;nan
12054;BME280;5638;50.860;4.698;2022-07-23T05:14:43;101465.75;;;17.92;nan
12054;BME280;5638;50.860;4.698;2022-07-23T05:17:09;101470.13;;;17.92;nan
12054;BME280;5638;50.860;4.698;2022-07-23T05:19:35;101469.09;;;17.96;nan
12054;BME280;5638;50.860;4.698;2022-07-23T05:22:01;101481.84;;;18.07;nan
12054;BME280;5638;50.860;4.698;2022-07-23T05:24:27;101476.75;;;18.02;nan
12054;BME280;5638;50.860;4.698;2022-07-23T05:26:53;101485.47;;;18.03;nan
12054;BME280;5638;50.860;4.698;2022-07-23T05:29:19;101487.69;;;18.13;nan
12054;BME280;5638;50.860;4.698;2022-07-23T05:31:45;101484.91;;;18.18;nan
12054;BME280;5638;50.860;4.698;2022-07-23T05:34:11;101481.97;;;18.27;nan
12054;BME280;5638;50.860;4.698;2022-07-23T05:36:37;101491.19;;;18.37;nan
12054;BME280;5638;50.860;4.698;2022-07-23T05:39:03;101475.72;;;18.31;nan
12054;BME280;5638;50.860;4.698;2022-07-23T05:41:29;101475.53;;;18.36;nan
12054;BME280;5638;50.860;4.698;2022-07-23T05:43:55;101490.69;;;18.51;nan
12054;BME280;5638;50.860;4.698;2022-07-23T05:46:21;101493.09;;;18.57;nan
12054;BME280;5638;50.860;4.698;2022-07-23T05:48:47;101496.44;;;18.61;nan
12054;BME280;5638;50.860;4.698;2022-07-23T05:51:25;101498.78;;;18.69;nan
12054;BME280;5638;50.860;4.698;2022-07-23T05:53:51;101490.94;;;18.69;nan
12054;BME280;5638;50.860;4.698;2022-07-23T05:56:18;101490.97;;;18.67;nan
12054;BME280;5638;50.860;4.698;2022-07-23T05:58:44;101477.97;;;18.64;nan
12054;BME280;5638;50.860;4.698;2022-07-23T06:01:11;101482.94;;;18.72;nan
12054;BME280;5638;50.860;4.698;2022-07-23T06:03:39;101505.53;;;18.76;nan
12054;BME280;5638;50.860;4.698;2022-07-23T06:06:06;101503.88;;;18.73;nan
12054;BME280;5638;50.860;4.698;2022-07-23T06:08:32;101483.22;;;18.64;nan
12054;BME280;5638;50.860;4.698;2022-07-23T06:10:58;101496.22;;;18.90;nan
12054;BME280;5638;50.860;4.698;2022-07-23T06:13:24;101492.56;;;18.95;nan
12054;BME280;5638;50.860;4.698;2022-07-23T06:15:50;101495.97;;;18.97;nan
12054;BME280;5638;50.860;4.698;2022-07-23T06:18:16;101488.97;;;18.97;nan
12054;BME280;5638;50.860;4.698;2022-07-23T06:20:41;101486.78;;;18.86;nan
12054;BME280;5638;50.860;4.698;2022-07-23T06:23:07;101496.41;;;18.86;nan
12054;BME280;5638;50.860;4.698;2022-07-23T06:25:33;101498.72;;;18.94;nan
12054;BME280;5638;50.860;4.698;2022-07-23T06:27:59;101487.91;;;18.79;nan
12054;BME280;5638;50.860;4.698;2022-07-23T06:30:25;101499.81;;;18.88;nan
12054;BME280;5638;50.860;4.698;2022-07-23T06:32:51;101503.09;;;18.93;nan
12054;BME280;5638;50.860;4.698;2022-07-23T06:35:17;101500.00;;;19.05;nan
12054;BME280;5638;50.860;4.698;2022-07-23T06:37:43;101500.44;;;19.16;nan
12054;BME280;5638;50.860;4.698;2022-07-23T06:40:10;101490.84;;;19.37;nan
12054;BME280;5638;50.860;4.698;2022-07-23T06:42:36;101482.19;;;19.35;nan
12054;BME280;5638;50.860;4.698;2022-07-23T06:45:08;101496.72;;;19.44;nan
12054;BME280;5638;50.860;4.698;2022-07-23T06:47:34;101498.44;;;19.44;nan
12054;BME280;5638;50.860;4.698;2022-07-23T06:50:00;101504.41;;;19.49;nan
12054;BME280;5638;50.860;4.698;2022-07-23T06:52:26;101505.81;;;19.56;nan
12054;BME280;5638;50.860;4.698;2022-07-23T06:54:52;101510.88;;;19.62;nan
12054;BME280;5638;50.860;4.698;2022-07-23T06:57:18;101513.41;;;19.63;nan
12054;BME280;5638;50.860;4.698;2022-07-23T06:59:44;101512.31;;;19.89;nan
12054;BME280;5638;50.860;4.698;2022-07-23T07:02:10;101510.88;;;19.82;nan
12054;BME280;5638;50.860;4.698;2022-07-23T07:04:36;101505.56;;;19.84;nan
12054;BME280;5638;50.860;4.698;2022-07-23T07:07:02;101517.53;;;19.91;nan
12054;BME280;5638;50.860;4.698;2022-07-23T07:09:28;101508.47;;;19.98;nan
12054;BME280;5638;50.860;4.698;2022-07-23T07:11:54;101512.19;;;20.13;nan
12054;BME280;5638;50.860;4.698;2022-07-23T07:14:20;101504.22;;;20.14;nan
12054;BME280;5638;50.860;4.698;2022-07-23T07:16:46;101507.25;;;20.26;nan
12054;BME280;5638;50.860;4.698;2022-07-23T07:19:12;101509.47;;;20.14;nan
12054;BME280;5638;50.860;4.698;2022-07-23T07:21:38;101512.38;;;20.29;nan
12054;BME280;5638;50.860;4.698;2022-07-23T07:24:04;101516.81;;;20.27;nan
12054;BME280;5638;50.860;4.698;2022-07-23T07:26:30;101499.56;;;20.21;nan
12054;BME280;5638;50.860;4.698;2022-07-23T07:28:57;101524.38;;;20.55;nan
12054;BME280;5638;50.860;4.698;2022-07-23T07:31:23;101521.94;;;20.69;nan
12054;BME280;5638;50.860;4.698;2022-07-23T07:33:49;101536.41;;;20.79;nan
12054;BME280;5638;50.860;4.698;2022-07-23T07:36:14;101533.47;;;20.67;nan
12054;BME280;5638;50.860;4.698;2022-07-23T07:38:40;101533.47;;;20.67;nan
12054;BME280;5638;50.860;4.698;2022-07-23T07:41:06;101525.50;;;20.68;nan
12054;BME280;5638;50.860;4.698;2022-07-23T07:43:33;101541.66;;;20.79;nan
12054;BME280;5638;50.860;4.698;2022-07-23T07:45:59;101537.53;;;20.93;nan
12054;BME280;5638;50.860;4.698;2022-07-23T07:48:25;101532.06;;;21.16;nan
12054;BME280;5638;50.860;4.698;2022-07-23T07:50:50;101525.53;;;21.23;nan
12054;BME280;5638;50.860;4.698;2022-07-23T07:53:16;101542.28;;;21.41;nan
12054;BME280;5638;50.860;4.698;2022-07-23T07:55:42;101541.50;;;21.56;nan
12054;BME280;5638;50.860;4.698;2022-07-23T07:58:08;101540.75;;;21.72;nan
12054;BME280;5638;50.860;4.698;2022-07-23T08:00:34;101538.13;;;21.89;nan
12054;BME280;5638;50.860;4.698;2022-07-23T08:03:00;101543.22;;;22.09;nan
12054;BME280;5638;50.860;4.698;2022-07-23T08:05:29;101554.63;;;22.27;nan
12054;BME280;5638;50.860;4.698;2022-07-23T08:07:57;101560.88;;;22.42;nan
12054;BME280;5638;50.860;4.698;2022-07-23T08:10:25;101557.75;;;22.51;nan
12054;BME280;5638;50.860;4.698;2022-07-23T08:12:55;101557.50;;;22.56;nan
12054;BME280;5638;50.860;4.698;2022-07-23T08:15:24;101558.81;;;22.65;nan
12054;BME280;5638;50.860;4.698;2022-07-23T08:17:50;101559.84;;;22.78;nan
12054;BME280;5638;50.860;4.698;2022-07-23T08:20:19;101555.19;;;22.83;nan
12054;BME280;5638;50.860;4.698;2022-07-23T08:22:57;101552.03;;;22.76;nan
12054;BME280;5638;50.860;4.698;2022-07-23T08:25:29;101542.28;;;22.61;nan
12054;BME280;5638;50.860;4.698;2022-07-23T08:27:58;101553.03;;;22.58;nan
12054;BME280;5638;50.860;4.698;2022-07-23T08:30:26;101553.38;;;22.68;nan
12054;BME280;5638;50.860;4.698;2022-07-23T08:35:36;101551.00;;;22.63;nan
12054;BME280;5638;50.860;4.698;2022-07-23T08:38:06;101543.34;;;22.74;nan
12054;BME280;5638;50.860;4.698;2022-07-23T08:40:36;101550.13;;;22.96;nan
12054;BME280;5638;50.860;4.698;2022-07-23T08:43:06;101550.72;;;23.01;nan
12054;BME280;5638;50.860;4.698;2022-07-23T08:45:43;101548.13;;;23.15;nan
12054;BME280;5638;50.860;4.698;2022-07-23T08:48:17;101555.31;;;23.13;nan
12054;BME280;5638;50.860;4.698;2022-07-23T08:50:47;101546.13;;;23.20;nan
12054;BME280;5638;50.860;4.698;2022-07-23T08:53:15;101538.19;;;23.04;nan
12054;BME280;5638;50.860;4.698;2022-07-23T08:55:49;101550.72;;;23.17;nan
12054;BME280;5638;50.860;4.698;2022-07-23T08:58:16;101552.09;;;23.08;nan
12054;BME280;5638;50.860;4.698;2022-07-23T09:00:43;101560.34;;;23.18;nan
12054;BME280;5638;50.860;4.698;2022-07-23T09:03:17;101558.13;;;23.26;nan
12054;BME280;5638;50.860;4.698;2022-07-23T09:05:44;101558.00;;;23.27;nan
12054;BME280;5638;50.860;4.698;2022-07-23T09:08:14;101553.31;;;23.32;nan
12054;BME280;5638;50.860;4.698;2022-07-23T09:13:35;101554.41;;;23.44;nan
12054;BME280;5638;50.860;4.698;2022-07-23T09:18:55;101552.88;;;23.56;nan
12054;BME280;5638;50.860;4.698;2022-07-23T09:21:25;101555.59;;;23.70;nan
12054;BME280;5638;50.860;4.698;2022-07-23T09:24:09;101556.38;;;23.86;nan
12054;BME280;5638;50.860;4.698;2022-07-23T09:26:46;101555.75;;;23.97;nan
12054;BME280;5638;50.860;4.698;2022-07-23T09:29:23;101556.66;;;24.12;nan
12054;BME280;5638;50.860;4.698;2022-07-23T09:34:32;101556.91;;;24.38;nan
12054;BME280;5638;50.860;4.698;2022-07-23T09:37:13;101548.56;;;24.44;nan
12054;BME280;5638;50.860;4.698;2022-07-23T09:39:41;101548.25;;;24.34;nan
12054;BME280;5638;50.860;4.698;2022-07-23T09:42:26;101543.91;;;24.19;nan
12054;BME280;5638;50.860;4.698;2022-07-23T09:44:58;101548.53;;;24.29;nan
12054;BME280;5638;50.860;4.698;2022-07-23T09:47:27;101547.50;;;24.32;nan
12054;BME280;5638;50.860;4.698;2022-07-23T09:52:42;101541.59;;;24.43;nan
12054;BME280;5638;50.860;4.698;2022-07-23T09:55:08;101539.03;;;24.55;nan
12054;BME280;5638;50.860;4.698;2022-07-23T09:57:34;101536.28;;;24.57;nan
12054;BME280;5638;50.860;4.698;2022-07-23T10:00:07;101546.66;;;24.31;nan
12054;BME280;5638;50.860;4.698;2022-07-23T10:02:36;101543.44;;;24.12;nan
12054;BME280;5638;50.860;4.698;2022-07-23T10:05:03;101543.63;;;24.23;nan
12054;BME280;5638;50.860;4.698;2022-07-23T10:07:34;101539.91;;;24.11;nan
12054;BME280;5638;50.860;4.698;2022-07-23T10:10:04;101542.59;;;24.26;nan
12054;BME280;5638;50.860;4.698;2022-07-23T10:12:31;101541.75;;;24.25;nan
12054;BME280;5638;50.860;4.698;2022-07-23T10:15:16;101548.97;;;24.38;nan
12054;BME280;5638;50.860;4.698;2022-07-23T10:17:43;101543.94;;;24.47;nan
12054;BME280;5638;50.860;4.698;2022-07-23T10:20:08;101541.22;;;24.63;nan
12054;BME280;5638;50.860;4.698;2022-07-23T10:22:46;101530.59;;;24.92;nan
12054;BME280;5638;50.860;4.698;2022-07-23T10:25:36;101544.84;;;24.89;nan
12054;BME280;5638;50.860;4.698;2022-07-23T10:31:52;101539.66;;;25.29;nan
12054;BME280;5638;50.860;4.698;2022-07-23T10:34:44;101544.31;;;25.65;nan
12054;BME280;5638;50.860;4.698;2022-07-23T10:37:34;101545.50;;;26.01;nan
12054;BME280;5638;50.860;4.698;2022-07-23T10:40:23;101533.06;;;26.14;nan
12054;BME280;5638;50.860;4.698;2022-07-23T10:42:52;101546.97;;;26.56;nan
12054;BME280;5638;50.860;4.698;2022-07-23T10:45:33;101538.19;;;26.79;nan
12054;BME280;5638;50.860;4.698;2022-07-23T10:48:26;101537.28;;;26.80;nan
12054;BME280;5638;50.860;4.698;2022-07-23T10:51:14;101534.63;;;26.80;nan
12054;BME280;5638;50.860;4.698;2022-07-23T10:53:53;101541.13;;;27.00;nan
12054;BME280;5638;50.860;4.698;2022-07-23T10:57:04;101537.03;;;26.96;nan
12054;BME280;5638;50.860;4.698;2022-07-23T10:59:32;101541.69;;;26.93;nan
12054;BME280;5638;50.860;4.698;2022-07-23T11:02:23;101539.59;;;26.85;nan
12054;BME280;5638;50.860;4.698;2022-07-23T11:04:51;101545.53;;;26.89;nan
12054;BME280;5638;50.860;4.698;2022-07-23T11:07:17;101536.53;;;27.15;nan
12054;BME280;5638;50.860;4.698;2022-07-23T11:09:44;101525.84;;;27.28;nan
12054;BME280;5638;50.860;4.698;2022-07-23T11:15:10;101520.81;;;27.12;nan
12054;BME280;5638;50.860;4.698;2022-07-23T11:25:28;101520.41;;;27.29;nan
12054;BME280;5638;50.860;4.698;2022-07-23T11:28:16;101517.72;;;27.42;nan
12054;BME280;5638;50.860;4.698;2022-07-23T11:30:46;101522.13;;;27.30;nan
12054;BME280;5638;50.860;4.698;2022-07-23T11:35:42;101514.84;;;27.08;nan
12054;BME280;5638;50.860;4.698;2022-07-23T11:38:20;101510.38;;;27.57;nan
12054;BME280;5638;50.860;4.698;2022-07-23T11:40:53;101514.16;;;27.66;nan
12054;BME280;5638;50.860;4.698;2022-07-23T11:43:21;101516.03;;;27.76;nan
12054;BME280;5638;50.860;4.698;2022-07-23T11:45:53;101516.03;;;27.76;nan
12054;BME280;5638;50.860;4.698;2022-07-23T11:48:23;101515.44;;;27.95;nan
12054;BME280;5638;50.860;4.698;2022-07-23T11:50:51;101512.63;;;27.74;nan
12054;BME280;5638;50.860;4.698;2022-07-23T11:53:29;101508.31;;;27.85;nan
12054;BME280;5638;50.860;4.698;2022-07-23T11:56:09;101512.31;;;27.90;nan
12054;BME280;5638;50.860;4.698;2022-07-23T11:58:38;101498.50;;;27.96;nan
12054;BME280;5638;50.860;4.698;2022-07-23T12:01:04;101504.84;;;28.07;nan
12054;BME280;5638;50.860;4.698;2022-07-23T12:03:31;101507.72;;;28.03;nan
12054;BME280;5638;50.860;4.698;2022-07-23T12:05:59;101500.94;;;27.99;nan
12054;BME280;5638;50.860;4.698;2022-07-23T12:08:25;101502.53;;;28.13;nan
12054;BME280;5638;50.860;4.698;2022-07-23T12:10:51;101494.78;;;27.99;nan
12054;BME280;5638;50.860;4.698;2022-07-23T12:13:20;101496.59;;;28.21;nan
12054;BME280;5638;50.860;4.698;2022-07-23T12:15:53;101506.16;;;28.12;nan
12054;BME280;5638;50.860;4.698;2022-07-23T12:18:27;101487.50;;;27.78;nan
12054;BME280;5638;50.860;4.698;2022-07-23T12:20:57;101505.91;;;27.93;nan
12054;BME280;5638;50.860;4.698;2022-07-23T12:23:26;101509.31;;;28.06;nan
12054;BME280;5638;50.860;4.698;2022-07-23T12:25:53;101501.06;;;27.98;nan
12054;BME280;5638;50.860;4.698;2022-07-23T12:28:22;101495.53;;;28.46;nan
12054;BME280;5638;50.860;4.698;2022-07-23T12:33:22;101501.22;;;28.64;nan
12054;BME280;5638;50.860;4.698;2022-07-23T12:35:57;101497.81;;;28.62;nan
12054;BME280;5638;50.860;4.698;2022-07-23T12:38:26;101497.13;;;28.60;nan
12054;BME280;5638;50.860;4.698;2022-07-23T12:40:56;101494.31;;;28.61;nan
12054;BME280;5638;50.860;4.698;2022-07-23T12:43:33;101496.75;;;28.64;nan
12054;BME280;5638;50.860;4.698;2022-07-23T12:46:11;101492.59;;;28.83;nan
12054;BME280;5638;50.860;4.698;2022-07-23T12:48:39;101495.00;;;28.86;nan
12054;BME280;5638;50.860;4.698;2022-07-23T12:51:26;101488.34;;;28.80;nan
12054;BME280;5638;50.860;4.698;2022-07-23T12:54:03;101497.78;;;28.84;nan
12054;BME280;5638;50.860;4.698;2022-07-23T12:56:33;101491.66;;;28.72;nan
12054;BME280;5638;50.860;4.698;2022-07-23T12:59:12;101489.31;;;29.01;nan
12054;BME280;5638;50.860;4.698;2022-07-23T13:01:53;101482.84;;;29.04;nan
12054;BME280;5638;50.860;4.698;2022-07-23T13:04:22;101481.66;;;28.97;nan
12054;BME280;5638;50.860;4.698;2022-07-23T13:06:51;101485.88;;;29.11;nan
12054;BME280;5638;50.860;4.698;2022-07-23T13:09:30;101485.66;;;29.02;nan
12054;BME280;5638;50.860;4.698;2022-07-23T13:11:58;101484.88;;;29.12;nan
12054;BME280;5638;50.860;4.698;2022-07-23T13:14:25;101484.44;;;29.07;nan
12054;BME280;5638;50.860;4.698;2022-07-23T13:16:53;101484.94;;;28.89;nan
12054;BME280;5638;50.860;4.698;2022-07-23T13:19:20;101488.84;;;28.74;nan
12054;BME280;5638;50.860;4.698;2022-07-23T13:21:47;101473.72;;;28.74;nan
12054;BME280;5638;50.860;4.698;2022-07-23T13:24:13;101480.19;;;29.04;nan
12054;BME280;5638;50.860;4.698;2022-07-23T13:26:40;101486.50;;;28.92;nan
12054;BME280;5638;50.860;4.698;2022-07-23T13:29:07;101476.63;;;28.71;nan
12054;BME280;5638;50.860;4.698;2022-07-23T13:31:36;101475.16;;;28.67;nan
12054;BME280;5638;50.860;4.698;2022-07-23T13:34:03;101478.56;;;28.81;nan
12054;BME280;5638;50.860;4.698;2022-07-23T13:36:29;101476.81;;;29.02;nan
12054;BME280;5638;50.860;4.698;2022-07-23T13:38:55;101474.91;;;29.25;nan
12054;BME280;5638;50.860;4.698;2022-07-23T13:41:21;101474.47;;;29.41;nan
12054;BME280;5638;50.860;4.698;2022-07-23T13:43:47;101475.25;;;29.52;nan
12054;BME280;5638;50.860;4.698;2022-07-23T13:46:12;101478.53;;;29.56;nan
12054;BME280;5638;50.860;4.698;2022-07-23T13:48:38;101471.84;;;29.29;nan
12054;BME280;5638;50.860;4.698;2022-07-23T13:51:04;101462.03;;;29.51;nan
12054;BME280;5638;50.860;4.698;2022-07-23T13:53:30;101469.78;;;29.54;nan
12054;BME280;5638;50.860;4.698;2022-07-23T13:55:56;101458.75;;;29.59;nan
12054;BME280;5638;50.860;4.698;2022-07-23T13:58:23;101464.44;;;29.54;nan
12054;BME280;5638;50.860;4.698;2022-07-23T14:00:52;101460.28;;;29.19;nan
12054;BME280;5638;50.860;4.698;2022-07-23T14:03:20;101469.41;;;29.59;nan